sensor_id;sensor_type;location;lat;lon;timestamp;pressure;altitude;pressure_sealevel;temperature;humidity
30554;BME280;17335;50.720;7.452;2023-07-09T00:01:42;99508.41;;;21.30;100.00
30554;BME280;17335;50.720;7.452;2023-07-09T00:04:10;99505.88;;;21.22;100.00
30554;BME280;17335;50.720;7.452;2023-07-09T00:06:39;99507.97;;;21.13;100.00
30554;BME280;17335;50.720;7.452;2023-07-09T00:09:14;99517.22;;;21.12;100.00
30554;BME280;17335;50.720;7.452;2023-07-09T00:11:42;99512.19;;;21.03;100.00
30554;BME280;17335;50.720;7.452;2023-07-09T00:14:14;99506.53;;;21.04;100.00
30554;BME280;17335;50.720;7.452;2023-07-09T00:16:43;99500.00;;;21.05;100.00
30554;BME280;17335;50.720;7.452;2023-07-09T00:19:12;99507.97;;;21.13;100.00
30554;BME280;17335;50.720;7.452;2023-07-09T00:21:44;99507.13;;;21.20;100.00
30554;BME280;17335;50.720;7.452;2023-07-09T00:24:12;99506.09;;;21.27;100.00
30554;BME280;17335;50.720;7.452;2023-07-09T00:26:40;99512.38;;;21.14;100.00
30554;BME280;17335;50.720;7.452;2023-07-09T00:29:11;99509.88;;;21.00;100.00
30554;BME280;17335;50.720;7.452;2023-07-09T00:31:38;99521.00;;;20.98;100.00
30554;BME280;17335;50.720;7.452;2023-07-09T00:34:12;99514.44;;;20.72;100.00
30554;BME280;17335;50.720;7.452;2023-07-09T00:36:40;99517.34;;;20.64;100.00
30554;BME280;17335;50.720;7.452;2023-07-09T00:39:21;99516.31;;;20.65;100.00
30554;BME280;17335;50.720;7.452;2023-07-09T00:41:50;99509.56;;;20.54;100.00
30554;BME280;17335;50.720;7.452;2023-07-09T00:49:20;99514.00;;;20.14;100.00
30554;BME280;17335;50.720;7.452;2023-07-09T00:51:48;99514.78;;;20.01;100.00
30554;BME280;17335;50.720;7.452;2023-07-09T00:54:23;99523.06;;;19.79;100.00
30554;BME280;17335;50.720;7.452;2023-07-09T00:56:59;99516.13;;;19.77;100.00
30554;BME280;17335;50.720;7.452;2023-07-09T00:59:30;99520.53;;;19.78;100.00
30554;BME280;17335;50.720;7.452;2023-07-09T01:01:58;99522.88;;;19.81;100.00
30554;BME280;17335;50.720;7.452;2023-07-09T01:04:27;99532.25;;;19.78;100.00
30554;BME280;17335;50.720;7.452;2023-07-09T01:06:56;99526.97;;;19.70;100.00
30554;BME280;17335;50.720;7.452;2023-07-09T01:09:24;99527.13;;;19.62;100.00
30554;BME280;17335;50.720;7.452;2023-07-09T01:11:51;99522.44;;;19.56;100.00
30554;BME280;17335;50.720;7.452;2023-07-09T01:14:20;99529.16;;;19.53;100.00
30554;BME280;17335;50.720;7.452;2023-07-09T01:16:50;99527.66;;;19.51;100.00
30554;BME280;17335;50.720;7.452;2023-07-09T01:19:26;99530.53;;;19.42;100.00
30554;BME280;17335;50.720;7.452;2023-07-09T01:21:56;99517.31;;;19.39;100.00
30554;BME280;17335;50.720;7.452;2023-07-09T01:24:52;99524.44;;;19.40;100.00
30554;BME280;17335;50.720;7.452;2023-07-09T01:27:25;99524.31;;;19.27;100.00
30554;BME280;17335;50.720;7.452;2023-07-09T01:29:54;99523.50;;;19.26;100.00
30554;BME280;17335;50.720;7.452;2023-07-09T01:32:21;99518.63;;;19.22;100.00
30554;BME280;17335;50.720;7.452;2023-07-09T01:34:52;99525.13;;;19.21;100.00
30554;BME280;17335;50.720;7.452;2023-07-09T01:37:24;99533.09;;;19.22;100.00
30554;BME280;17335;50.720;7.452;2023-07-09T01:39:52;99525.97;;;19.21;100.00
30554;BME280;17335;50.720;7.452;2023-07-09T01:42:20;99519.25;;;19.17;100.00
30554;BME280;17335;50.720;7.452;2023-07-09T01:44:49;99524.25;;;19.14;100.00
30554;BME280;17335;50.720;7.452;2023-07-09T01:47:17;99523.78;;;19.10;100.00
30554;BME280;17335;50.720;7.452;2023-07-09T01:49:44;99523.91;;;19.02;100.00
30554;BME280;17335;50.720;7.452;2023-07-09T01:52:16;99524.25;;;18.92;100.00
30554;BME280;17335;50.720;7.452;2023-07-09T01:54:45;99521.31;;;18.93;100.00
30554;BME280;17335;50.720;7.452;2023-07-09T01:57:21;99526.06;;;18.85;100.00
30554;BME280;17335;50.720;7.452;2023-07-09T01:59:54;99531.84;;;18.82;100.00
30554;BME280;17335;50.720;7.452;2023-07-09T02:02:22;99528.47;;;18.80;100.00
30554;BME280;17335;50.720;7.452;2023-07-09T02:04:51;99536.28;;;18.83;100.00
30554;BME280;17335;50.720;7.452;2023-07-09T02:07:19;99537.13;;;18.83;100.00
30554;BME280;17335;50.720;7.452;2023-07-09T02:09:46;99535.63;;;18.81;100.00
30554;BME280;17335;50.720;7.452;2023-07-09T02:12:13;99532.72;;;18.82;100.00
30554;BME280;17335;50.720;7.452;2023-07-09T02:14:43;99538.34;;;18.81;100.00
30554;BME280;17335;50.720;7.452;2023-07-09T02:17:12;99534.31;;;18.77;100.00
30554;BME280;17335;50.720;7.452;2023-07-09T02:19:39;99541.38;;;18.71;100.00
30554;BME280;17335;50.720;7.452;2023-07-09T02:22:06;99535.47;;;18.67;100.00
30554;BME280;17335;50.720;7.452;2023-07-09T02:24:33;99534.59;;;18.67;100.00
30554;BME280;17335;50.720;7.452;2023-07-09T02:27:03;99533.78;;;18.66;100.00
30554;BME280;17335;50.720;7.452;2023-07-09T02:29:30;99535.59;;;18.59;100.00
30554;BME280;17335;50.720;7.452;2023-07-09T02:31:58;99546.56;;;18.51;100.00
30554;BME280;17335;50.720;7.452;2023-07-09T02:34:26;99540.88;;;18.46;100.00
30554;BME280;17335;50.720;7.452;2023-07-09T02:36:53;99547.72;;;18.42;100.00
30554;BME280;17335;50.720;7.452;2023-07-09T02:39:21;99554.78;;;18.36;100.00
30554;BME280;17335;50.720;7.452;2023-07-09T02:41:49;99550.56;;;18.33;100.00
30554;BME280;17335;50.720;7.452;2023-07-09T02:44:16;99558.34;;;18.36;100.00
30554;BME280;17335;50.720;7.452;2023-07-09T02:46:43;99560.66;;;18.40;100.00
30554;BME280;17335;50.720;7.452;2023-07-09T02:49:11;99566.47;;;18.36;100.00
30554;BME280;17335;50.720;7.452;2023-07-09T02:51:39;99557.78;;;18.26;100.00
30554;BME280;17335;50.720;7.452;2023-07-09T02:54:06;99564.88;;;18.27;100.00
30554;BME280;17335;50.720;7.452;2023-07-09T02:56:33;99562.16;;;18.27;100.00
30554;BME280;17335;50.720;7.452;2023-07-09T02:59:00;99565.47;;;18.23;100.00
30554;BME280;17335;50.720;7.452;2023-07-09T03:01:26;99568.75;;;18.18;100.00
30554;BME280;17335;50.720;7.452;2023-07-09T03:03:54;99567.72;;;18.19;100.00
30554;BME280;17335;50.720;7.452;2023-07-09T03:06:22;99565.94;;;18.11;100.00
30554;BME280;17335;50.720;7.452;2023-07-09T03:08:51;99569.03;;;18.08;100.00
30554;BME280;17335;50.720;7.452;2023-07-09T03:11:19;99573.16;;;18.04;100.00
30554;BME280;17335;50.720;7.452;2023-07-09T03:13:47;99577.94;;;18.02;100.00
30554;BME280;17335;50.720;7.452;2023-07-09T03:16:15;99576.88;;;18.03;100.00
30554;BME280;17335;50.720;7.452;2023-07-09T03:18:42;99570.63;;;18.03;100.00
30554;BME280;17335;50.720;7.452;2023-07-09T03:21:09;99578.59;;;18.04;100.00
30554;BME280;17335;50.720;7.452;2023-07-09T03:23:35;99583.56;;;18.01;100.00
30554;BME280;17335;50.720;7.452;2023-07-09T03:26:02;99584.22;;;18.03;100.00
30554;BME280;17335;50.720;7.452;2023-07-09T03:28:31;99579.44;;;18.05;100.00
30554;BME280;17335;50.720;7.452;2023-07-09T03:30:58;99592.00;;;18.06;100.00
30554;BME280;17335;50.720;7.452;2023-07-09T03:33:25;99600.59;;;18.09;100.00
30554;BME280;17335;50.720;7.452;2023-07-09T03:35:52;99602.66;;;18.07;100.00
30554;BME280;17335;50.720;7.452;2023-07-09T03:38:19;99601.72;;;18.15;100.00
30554;BME280;17335;50.720;7.452;2023-07-09T03:40:50;99604.16;;;18.10;100.00
30554;BME280;17335;50.720;7.452;2023-07-09T03:43:17;99606.22;;;18.08;100.00
30554;BME280;17335;50.720;7.452;2023-07-09T03:45:44;99600.78;;;18.08;100.00
30554;BME280;17335;50.720;7.452;2023-07-09T03:48:11;99607.06;;;18.08;100.00
30554;BME280;17335;50.720;7.452;2023-07-09T03:50:38;99609.59;;;18.10;100.00
30554;BME280;17335;50.720;7.452;2023-07-09T03:53:05;99612.59;;;18.15;100.00
30554;BME280;17335;50.720;7.452;2023-07-09T03:55:32;99607.16;;;18.15;100.00
30554;BME280;17335;50.720;7.452;2023-07-09T03:57:59;99608.84;;;18.16;100.00
30554;BME280;17335;50.720;7.452;2023-07-09T04:00:25;99615.97;;;18.17;100.00
30554;BME280;17335;50.720;7.452;2023-07-09T04:02:52;99611.19;;;18.19;100.00
30554;BME280;17335;50.720;7.452;2023-07-09T04:05:19;99612.88;;;18.20;100.00
30554;BME280;17335;50.720;7.452;2023-07-09T04:07:45;99615.22;;;18.23;100.00
30554;BME280;17335;50.720;7.452;2023-07-09T04:10:13;99612.78;;;18.28;100.00
30554;BME280;17335;50.720;7.452;2023-07-09T04:12:40;99618.69;;;18.32;100.00
30554;BME280;17335;50.720;7.452;2023-07-09T04:15:09;99609.59;;;18.40;100.00
30554;BME280;17335;50.720;7.452;2023-07-09T04:17:36;99613.16;;;18.40;100.00
30554;BME280;17335;50.720;7.452;2023-07-09T04:20:02;99623.75;;;18.50;100.00
30554;BME280;17335;50.720;7.452;2023-07-09T04:22:32;99615.19;;;18.53;100.00
30554;BME280;17335;50.720;7.452;2023-07-09T04:24:58;99618.34;;;18.56;100.00
30554;BME280;17335;50.720;7.452;2023-07-09T04:27:25;99624.75;;;18.64;100.00
30554;BME280;17335;50.720;7.452;2023-07-09T04:29:55;99614.97;;;18.69;100.00
30554;BME280;17335;50.720;7.452;2023-07-09T04:32:21;99620.31;;;18.78;100.00
30554;BME280;17335;50.720;7.452;2023-07-09T04:34:48;99612.03;;;18.86;100.00
30554;BME280;17335;50.720;7.452;2023-07-09T04:37:15;99612.97;;;18.93;100.00
30554;BME280;17335;50.720;7.452;2023-07-09T04:39:45;99609.09;;;19.02;100.00
30554;BME280;17335;50.720;7.452;2023-07-09T04:42:16;99608.25;;;19.02;100.00
30554;BME280;17335;50.720;7.452;2023-07-09T04:44:45;99610.00;;;19.09;100.00
30554;BME280;17335;50.720;7.452;2023-07-09T04:47:11;99613.44;;;19.18;100.00
30554;BME280;17335;50.720;7.452;2023-07-09T04:49:42;99608.06;;;19.25;100.00
30554;BME280;17335;50.720;7.452;2023-07-09T04:52:09;99604.19;;;19.34;100.00
30554;BME280;17335;50.720;7.452;2023-07-09T04:54:41;99605.28;;;19.40;100.00
30554;BME280;17335;50.720;7.452;2023-07-09T04:57:12;99606.72;;;19.64;100.00
30554;BME280;17335;50.720;7.452;2023-07-09T04:59:38;99596.53;;;20.36;100.00
30554;BME280;17335;50.720;7.452;2023-07-09T05:02:05;99584.25;;;21.48;100.00
30554;BME280;17335;50.720;7.452;2023-07-09T05:04:33;99574.78;;;23.33;100.00
30554;BME280;17335;50.720;7.452;2023-07-09T05:07:00;99566.81;;;24.86;100.00
30554;BME280;17335;50.720;7.452;2023-07-09T05:09:27;99560.22;;;25.95;100.00
30554;BME280;17335;50.720;7.452;2023-07-09T05:11:53;99549.09;;;26.54;100.00
30554;BME280;17335;50.720;7.452;2023-07-09T05:14:20;99548.63;;;26.86;100.00
30554;BME280;17335;50.720;7.452;2023-07-09T05:16:46;99553.91;;;27.05;100.00
30554;BME280;17335;50.720;7.452;2023-07-09T05:19:13;99548.56;;;27.44;100.00
30554;BME280;17335;50.720;7.452;2023-07-09T05:21:39;99543.69;;;27.51;100.00
30554;BME280;17335;50.720;7.452;2023-07-09T05:24:06;99545.09;;;27.37;100.00
30554;BME280;17335;50.720;7.452;2023-07-09T05:26:33;99549.97;;;26.84;100.00
30554;BME280;17335;50.720;7.452;2023-07-09T05:29:02;99557.28;;;26.37;100.00
30554;BME280;17335;50.720;7.452;2023-07-09T05:31:29;99549.28;;;26.36;100.00
30554;BME280;17335;50.720;7.452;2023-07-09T05:33:55;99559.00;;;26.15;100.00
30554;BME280;17335;50.720;7.452;2023-07-09T05:36:22;99559.84;;;26.04;100.00
30554;BME280;17335;50.720;7.452;2023-07-09T05:38:49;99558.28;;;26.08;100.00
30554;BME280;17335;50.720;7.452;2023-07-09T05:41:16;99559.13;;;26.08;100.00
30554;BME280;17335;50.720;7.452;2023-07-09T05:43:44;99561.91;;;25.96;100.00
30554;BME280;17335;50.720;7.452;2023-07-09T05:46:12;99559.13;;;26.08;100.00
30554;BME280;17335;50.720;7.452;2023-07-09T05:48:39;99555.16;;;25.92;100.00
30554;BME280;17335;50.720;7.452;2023-07-09T05:51:06;99564.50;;;25.91;100.00
30554;BME280;17335;50.720;7.452;2023-07-09T05:53:32;99561.50;;;26.16;100.00
30554;BME280;17335;50.720;7.452;2023-07-09T05:56:00;99560.53;;;25.87;100.00
30554;BME280;17335;50.720;7.452;2023-07-09T05:58:27;99567.97;;;26.10;100.00
30554;BME280;17335;50.720;7.452;2023-07-09T06:00:54;99564.13;;;26.11;100.00
30554;BME280;17335;50.720;7.452;2023-07-09T06:03:24;99565.13;;;26.46;100.00
30554;BME280;17335;50.720;7.452;2023-07-09T06:05:52;99563.09;;;26.65;100.00
30554;BME280;17335;50.720;7.452;2023-07-09T06:08:20;99558.84;;;26.74;100.00
30554;BME280;17335;50.720;7.452;2023-07-09T06:11:03;99565.69;;;27.00;100.00
30554;BME280;17335;50.720;7.452;2023-07-09T06:13:31;99564.13;;;27.21;100.00
30554;BME280;17335;50.720;7.452;2023-07-09T06:15:59;99566.59;;;27.35;100.00
30554;BME280;17335;50.720;7.452;2023-07-09T06:18:26;99559.88;;;27.64;100.00
30554;BME280;17335;50.720;7.452;2023-07-09T06:20:58;99562.63;;;27.81;100.00
30554;BME280;17335;50.720;7.452;2023-07-09T06:23:25;99554.94;;;28.00;100.00
30554;BME280;17335;50.720;7.452;2023-07-09T06:25:52;99564.31;;;27.99;100.00
30554;BME280;17335;50.720;7.452;2023-07-09T06:28:22;99551.19;;;27.73;100.00
30554;BME280;17335;50.720;7.452;2023-07-09T06:30:49;99560.56;;;27.55;100.00
30554;BME280;17335;50.720;7.452;2023-07-09T06:33:17;99560.75;;;27.31;100.00
30554;BME280;17335;50.720;7.452;2023-07-09T06:35:54;99555.19;;;26.85;100.00
30554;BME280;17335;50.720;7.452;2023-07-09T06:38:21;99571.53;;;26.75;100.00
30554;BME280;17335;50.720;7.452;2023-07-09T06:40:49;99562.59;;;26.68;100.00
30554;BME280;17335;50.720;7.452;2023-07-09T06:43:16;99564.16;;;26.52;100.00
30554;BME280;17335;50.720;7.452;2023-07-09T06:46:10;99564.34;;;26.33;100.00
30554;BME280;17335;50.720;7.452;2023-07-09T06:48:38;99563.63;;;26.38;100.00
30554;BME280;17335;50.720;7.452;2023-07-09T06:51:04;99557.69;;;26.58;100.00
30554;BME280;17335;50.720;7.452;2023-07-09T06:53:31;99563.78;;;26.72;100.00
30554;BME280;17335;50.720;7.452;2023-07-09T06:55:58;99564.47;;;26.79;100.00
30554;BME280;17335;50.720;7.452;2023-07-09T06:58:27;99560.81;;;26.90;100.00
30554;BME280;17335;50.720;7.452;2023-07-09T07:00:55;99557.38;;;26.83;100.00
30554;BME280;17335;50.720;7.452;2023-07-09T07:03:22;99551.09;;;26.71;100.00
30554;BME280;17335;50.720;7.452;2023-07-09T07:05:52;99551.66;;;26.73;100.00
30554;BME280;17335;50.720;7.452;2023-07-09T07:08:24;99556.31;;;26.84;100.00
30554;BME280;17335;50.720;7.452;2023-07-09T07:10:56;99550.50;;;26.69;100.00
30554;BME280;17335;50.720;7.452;2023-07-09T07:13:36;99548.94;;;26.61;100.00
30554;BME280;17335;50.720;7.452;2023-07-09T07:16:06;99553.72;;;26.66;100.00
30554;BME280;17335;50.720;7.452;2023-07-09T07:18:34;99550.28;;;26.58;100.00
30554;BME280;17335;50.720;7.452;2023-07-09T07:21:00;99547.34;;;26.77;100.00
30554;BME280;17335;50.720;7.452;2023-07-09T07:23:27;99541.41;;;26.68;100.00
30554;BME280;17335;50.720;7.452;2023-07-09T07:25:54;99541.84;;;26.77;100.00
30554;BME280;17335;50.720;7.452;2023-07-09T07:28:22;99537.28;;;27.00;100.00
30554;BME280;17335;50.720;7.452;2023-07-09T07:31:00;99537.28;;;27.00;100.00
30554;BME280;17335;50.720;7.452;2023-07-09T07:33:27;99535.88;;;27.14;100.00
30554;BME280;17335;50.720;7.452;2023-07-09T07:35:53;99541.16;;;27.16;100.00
30554;BME280;17335;50.720;7.452;2023-07-09T07:38:40;99534.13;;;27.25;100.00
30554;BME280;17335;50.720;7.452;2023-07-09T07:41:07;99541.03;;;27.39;100.00
30554;BME280;17335;50.720;7.452;2023-07-09T07:43:33;99540.94;;;27.51;100.00
30554;BME280;17335;50.720;7.452;2023-07-09T07:46:00;99544.13;;;27.60;100.00
30554;BME280;17335;50.720;7.452;2023-07-09T07:48:26;99537.16;;;27.57;100.00
30554;BME280;17335;50.720;7.452;2023-07-09T07:50:59;99542.09;;;27.72;100.00
30554;BME280;17335;50.720;7.452;2023-07-09T07:53:26;99538.34;;;27.61;100.00
30554;BME280;17335;50.720;7.452;2023-07-09T07:55:55;99537.97;;;27.75;100.00
30554;BME280;17335;50.720;7.452;2023-07-09T07:58:23;99542.25;;;27.82;100.00
30554;BME280;17335;50.720;7.452;2023-07-09T08:00:49;99537.63;;;27.88;100.00
30554;BME280;17335;50.720;7.452;2023-07-09T08:03:20;99547.44;;;27.96;100.00
30554;BME280;17335;50.720;7.452;2023-07-09T08:05:50;99539.16;;;27.79;100.00
30554;BME280;17335;50.720;7.452;2023-07-09T08:08:17;99538.66;;;27.82;100.00
30554;BME280;17335;50.720;7.452;2023-07-09T08:10:44;99537.72;;;27.93;100.00
30554;BME280;17335;50.720;7.452;2023-07-09T08:13:10;99535.22;;;27.92;100.00
30554;BME280;17335;50.720;7.452;2023-07-09T08:15:37;99539.03;;;28.08;100.00
30554;BME280;17335;50.720;7.452;2023-07-09T08:18:03;99538.13;;;28.24;100.00
30554;BME280;17335;50.720;7.452;2023-07-09T08:20:30;99537.56;;;28.44;100.00
30554;BME280;17335;50.720;7.452;2023-07-09T08:22:59;99531.31;;;28.54;100.00
30554;BME280;17335;50.720;7.452;2023-07-09T08:25:26;99533.91;;;28.60;100.00
30554;BME280;17335;50.720;7.452;2023-07-09T08:27:52;99528.13;;;28.62;100.00
30554;BME280;17335;50.720;7.452;2023-07-09T08:30:19;99523.31;;;28.79;100.00
30554;BME280;17335;50.720;7.452;2023-07-09T08:32:45;99512.41;;;28.95;100.00
30554;BME280;17335;50.720;7.452;2023-07-09T08:35:12;99504.72;;;28.97;100.00
30554;BME280;17335;50.720;7.452;2023-07-09T08:37:59;99514.88;;;29.18;100.00
30554;BME280;17335;50.720;7.452;2023-07-09T08:40:26;99513.88;;;29.30;100.00
30554;BME280;17335;50.720;7.452;2023-07-09T08:42:59;99515.09;;;29.44;100.00
30554;BME280;17335;50.720;7.452;2023-07-09T08:48:03;99513.56;;;29.64;100.00
30554;BME280;17335;50.720;7.452;2023-07-09T08:50:41;99516.34;;;29.69;99.67
30554;BME280;17335;50.720;7.452;2023-07-09T08:53:19;99519.53;;;29.88;100.00
30554;BME280;17335;50.720;7.452;2023-07-09T08:55:48;99513.75;;;29.95;91.44
30554;BME280;17335;50.720;7.452;2023-07-09T08:58:28;99514.09;;;30.03;97.07
30554;BME280;17335;50.720;7.452;2023-07-09T09:00:57;99508.06;;;30.17;100.00
30554;BME280;17335;50.720;7.452;2023-07-09T09:03:34;99508.94;;;30.22;95.20
30554;BME280;17335;50.720;7.452;2023-07-09T09:06:20;99506.75;;;30.29;98.86
30554;BME280;17335;50.720;7.452;2023-07-09T09:09:21;99500.16;;;30.46;94.93
30554;BME280;17335;50.720;7.452;2023-07-09T09:12:12;99506.88;;;30.65;97.93
30554;BME280;17335;50.720;7.452;2023-07-09T09:14:43;99502.44;;;30.75;99.29
30554;BME280;17335;50.720;7.452;2023-07-09T09:17:16;99508.00;;;30.80;94.41
30554;BME280;17335;50.720;7.452;2023-07-09T09:19:59;99501.97;;;30.98;95.19
30554;BME280;17335;50.720;7.452;2023-07-09T09:22:30;99503.06;;;31.18;96.71
30554;BME280;17335;50.720;7.452;2023-07-09T09:27:30;99496.97;;;31.36;96.46
30554;BME280;17335;50.720;7.452;2023-07-09T09:29:57;99494.47;;;31.50;96.03
30554;BME280;17335;50.720;7.452;2023-07-09T09:32:27;99496.41;;;31.65;88.69
30554;BME280;17335;50.720;7.452;2023-07-09T09:34:54;99493.00;;;31.84;97.69
30554;BME280;17335;50.720;7.452;2023-07-09T09:37:26;99494.13;;;31.83;93.39
30554;BME280;17335;50.720;7.452;2023-07-09T09:39:53;99502.97;;;32.00;87.43
30554;BME280;17335;50.720;7.452;2023-07-09T09:42:40;99501.25;;;32.20;87.89
30554;BME280;17335;50.720;7.452;2023-07-09T09:45:15;99496.84;;;32.13;81.11
30554;BME280;17335;50.720;7.452;2023-07-09T09:47:44;99502.91;;;32.21;84.01
30554;BME280;17335;50.720;7.452;2023-07-09T09:50:20;99503.34;;;32.43;85.27
30554;BME280;17335;50.720;7.452;2023-07-09T09:52:48;99503.84;;;32.56;80.48
30554;BME280;17335;50.720;7.452;2023-07-09T09:55:19;99494.69;;;32.60;82.19
30554;BME280;17335;50.720;7.452;2023-07-09T09:57:48;99501.06;;;32.56;77.62
30554;BME280;17335;50.720;7.452;2023-07-09T10:00:17;99498.19;;;32.76;78.96
30554;BME280;17335;50.720;7.452;2023-07-09T10:02:44;99492.72;;;33.00;85.83
30554;BME280;17335;50.720;7.452;2023-07-09T10:05:15;99498.19;;;33.11;77.34
30554;BME280;17335;50.720;7.452;2023-07-09T10:08:01;99497.25;;;33.31;79.89
30554;BME280;17335;50.720;7.452;2023-07-09T10:10:32;99488.69;;;33.51;71.51
30554;BME280;17335;50.720;7.452;2023-07-09T10:13:27;99487.69;;;33.37;64.20
30554;BME280;17335;50.720;7.452;2023-07-09T10:16:07;99477.84;;;33.50;62.88
30554;BME280;17335;50.720;7.452;2023-07-09T10:18:49;99477.69;;;33.65;64.84
30554;BME280;17335;50.720;7.452;2023-07-09T10:26:34;99464.63;;;33.90;57.04
30554;BME280;17335;50.720;7.452;2023-07-09T10:40:11;99453.06;;;34.64;51.09
30554;BME280;17335;50.720;7.452;2023-07-09T10:42:48;99460.19;;;34.75;51.49
30554;BME280;17335;50.720;7.452;2023-07-09T10:45:26;99460.53;;;34.68;50.97
30554;BME280;17335;50.720;7.452;2023-07-09T10:48:20;99454.50;;;34.61;48.18
30554;BME280;17335;50.720;7.452;2023-07-09T10:50:52;99442.34;;;34.52;47.35
30554;BME280;17335;50.720;7.452;2023-07-09T10:53:33;99449.16;;;34.65;47.98
30554;BME280;17335;50.720;7.452;2023-07-09T10:56:07;99452.97;;;34.69;49.89
30554;BME280;17335;50.720;7.452;2023-07-09T10:58:42;99449.16;;;34.65;43.68
30554;BME280;17335;50.720;7.452;2023-07-09T11:01:12;99442.59;;;34.74;45.60
30554;BME280;17335;50.720;7.452;2023-07-09T11:03:56;99439.72;;;34.99;46.20
30554;BME280;17335;50.720;7.452;2023-07-09T11:06:47;99441.59;;;35.17;47.49
30554;BME280;17335;50.720;7.452;2023-07-09T11:09:29;99440.13;;;35.39;45.22
30554;BME280;17335;50.720;7.452;2023-07-09T11:12:01;99446.75;;;35.57;44.33
30554;BME280;17335;50.720;7.452;2023-07-09T11:14:37;99436.25;;;35.67;43.25
30554;BME280;17335;50.720;7.452;2023-07-09T11:17:08;99442.63;;;35.40;43.18
30554;BME280;17335;50.720;7.452;2023-07-09T11:19:44;99437.16;;;35.63;41.27
30554;BME280;17335;50.720;7.452;2023-07-09T11:22:20;99438.88;;;35.78;42.36
30554;BME280;17335;50.720;7.452;2023-07-09T11:24:53;99440.16;;;35.66;39.30
30554;BME280;17335;50.720;7.452;2023-07-09T11:27:32;99428.47;;;35.64;38.57
30554;BME280;17335;50.720;7.452;2023-07-09T11:30:23;99426.84;;;35.77;39.77
30554;BME280;17335;50.720;7.452;2023-07-09T11:33:04;99429.94;;;35.90;43.05
30554;BME280;17335;50.720;7.452;2023-07-09T11:35:51;99415.75;;;36.00;40.71
30554;BME280;17335;50.720;7.452;2023-07-09T11:38:23;99407.69;;;35.84;38.50
30554;BME280;17335;50.720;7.452;2023-07-09T11:40:52;99401.91;;;35.81;39.72
30554;BME280;17335;50.720;7.452;2023-07-09T11:43:28;99407.16;;;35.68;41.12
30554;BME280;17335;50.720;7.452;2023-07-09T11:46:11;99397.88;;;35.87;39.69
30554;BME280;17335;50.720;7.452;2023-07-09T11:48:41;99404.56;;;36.00;42.30
30554;BME280;17335;50.720;7.452;2023-07-09T11:51:23;99405.84;;;35.94;41.55
30554;BME280;17335;50.720;7.452;2023-07-09T11:53:53;99405.72;;;35.99;40.60
30554;BME280;17335;50.720;7.452;2023-07-09T11:56:22;99413.06;;;35.81;39.09
30554;BME280;17335;50.720;7.452;2023-07-09T11:58:52;99405.94;;;35.61;39.24
30554;BME280;17335;50.720;7.452;2023-07-09T12:01:22;99415.97;;;35.90;38.10
30554;BME280;17335;50.720;7.452;2023-07-09T12:03:50;99407.91;;;36.02;37.66
30554;BME280;17335;50.720;7.452;2023-07-09T12:06:23;99403.28;;;36.34;38.47
30554;BME280;17335;50.720;7.452;2023-07-09T12:08:51;99388.25;;;36.44;37.68
30554;BME280;17335;50.720;7.452;2023-07-09T12:11:25;99392.13;;;36.56;38.48
30554;BME280;17335;50.720;7.452;2023-07-09T12:13:52;99385.69;;;36.70;36.59
30554;BME280;17335;50.720;7.452;2023-07-09T12:18:49;99377.66;;;36.77;37.86
30554;BME280;17335;50.720;7.452;2023-07-09T12:21:17;99383.59;;;36.61;37.49
30554;BME280;17335;50.720;7.452;2023-07-09T12:23:45;99382.59;;;36.57;37.15
30554;BME280;17335;50.720;7.452;2023-07-09T12:26:14;99377.66;;;36.77;38.63
30554;BME280;17335;50.720;7.452;2023-07-09T12:28:41;99371.44;;;36.80;39.97
30554;BME280;17335;50.720;7.452;2023-07-09T12:31:14;99372.31;;;36.89;37.93
30554;BME280;17335;50.720;7.452;2023-07-09T12:33:49;99367.47;;;37.04;39.01
30554;BME280;17335;50.720;7.452;2023-07-09T12:36:17;99362.88;;;37.08;37.23
30554;BME280;17335;50.720;7.452;2023-07-09T12:38:48;99369.28;;;37.08;38.06
30554;BME280;17335;50.720;7.452;2023-07-09T12:41:41;99376.09;;;36.85;37.19
30554;BME280;17335;50.720;7.452;2023-07-09T12:44:16;99365.81;;;36.35;36.56
30554;BME280;17335;50.720;7.452;2023-07-09T12:46:44;99348.25;;;36.43;38.28
30554;BME280;17335;50.720;7.452;2023-07-09T12:51:47;99339.38;;;36.41;37.64
30554;BME280;17335;50.720;7.452;2023-07-09T12:54:17;99337.69;;;36.17;40.39
30554;BME280;17335;50.720;7.452;2023-07-09T12:56:45;99338.69;;;35.99;40.50
30554;BME280;17335;50.720;7.452;2023-07-09T12:59:28;99335.66;;;36.09;41.20
30554;BME280;17335;50.720;7.452;2023-07-09T13:04:39;99337.47;;;35.63;40.82
30554;BME280;17335;50.720;7.452;2023-07-09T13:07:26;99323.00;;;35.61;39.97
30554;BME280;17335;50.720;7.452;2023-07-09T13:09:55;99323.50;;;35.63;41.87
30554;BME280;17335;50.720;7.452;2023-07-09T13:12:32;99316.16;;;35.81;40.63
30554;BME280;17335;50.720;7.452;2023-07-09T13:15:00;99316.25;;;36.27;40.40
30554;BME280;17335;50.720;7.452;2023-07-09T13:17:31;99320.19;;;36.26;37.98
30554;BME280;17335;50.720;7.452;2023-07-09T13:19:58;99315.69;;;36.02;39.64
30554;BME280;17335;50.720;7.452;2023-07-09T13:22:27;99319.75;;;35.96;41.31
30554;BME280;17335;50.720;7.452;2023-07-09T13:24:55;99319.16;;;36.21;42.35
30554;BME280;17335;50.720;7.452;2023-07-09T13:27:21;99306.81;;;36.36;41.34
30554;BME280;17335;50.720;7.452;2023-07-09T13:29:49;99314.94;;;36.47;41.71
30554;BME280;17335;50.720;7.452;2023-07-09T13:32:16;99308.94;;;36.03;41.45
30554;BME280;17335;50.720;7.452;2023-07-09T13:34:43;99306.66;;;35.55;42.47
30554;BME280;17335;50.720;7.452;2023-07-09T13:37:12;99303.69;;;35.23;42.72
30554;BME280;17335;50.720;7.452;2023-07-09T13:39:39;99311.41;;;34.99;45.52
30554;BME280;17335;50.720;7.452;2023-07-09T13:42:12;99306.59;;;34.71;44.48
30554;BME280;17335;50.720;7.452;2023-07-09T13:44:41;99300.75;;;34.54;43.05